Airport View

Enter AWOS ICAO identifier for current METAR.

ex. KFNL

KSWO 212253Z 17014KT 10SM CLR 29/21 A2993 RMK AO2 SLP120 T02940211

21 Sep 2019 23:25

Frequency: 135.725

Phone: 405-743-8150

Other Area AWOS: KCUH - KGOK - KCQB - KPNC

KPNC 211723Z 2118/2218 19009G17KT P6SM BKN020 FM212100 19015G22KT P6SM BKN040 BKN150 PROB30 2208/2212 3SM TSRA OVC010CB